sensor_id;sensor_type;location;lat;lon;timestamp;P1;durP1;ratioP1;P2;durP2;ratioP2
70543;SDS011;58097;48.364;-1.224;2023-07-31T00:01:51;12.98;;;4.45;;
70543;SDS011;58097;48.364;-1.224;2023-07-31T00:04:17;7.72;;;3.47;;
70543;SDS011;58097;48.364;-1.224;2023-07-31T00:06:42;13.05;;;4.00;;
70543;SDS011;58097;48.364;-1.224;2023-07-31T00:09:07;12.35;;;4.03;;
70543;SDS011;58097;48.364;-1.224;2023-07-31T00:11:33;9.23;;;4.07;;
70543;SDS011;58097;48.364;-1.224;2023-07-31T00:13:58;20.42;;;4.45;;
70543;SDS011;58097;48.364;-1.224;2023-07-31T00:16:23;9.32;;;4.28;;
70543;SDS011;58097;48.364;-1.224;2023-07-31T00:18:49;16.08;;;4.85;;
70543;SDS011;58097;48.364;-1.224;2023-07-31T00:21:14;14.10;;;4.35;;
70543;SDS011;58097;48.364;-1.224;2023-07-31T00:23:40;9.57;;;4.75;;
70543;SDS011;58097;48.364;-1.224;2023-07-31T00:26:05;11.77;;;4.63;;
70543;SDS011;58097;48.364;-1.224;2023-07-31T00:28:30;16.52;;;4.50;;
70543;SDS011;58097;48.364;-1.224;2023-07-31T00:30:55;14.52;;;5.28;;
70543;SDS011;58097;48.364;-1.224;2023-07-31T00:33:21;10.23;;;4.68;;
70543;SDS011;58097;48.364;-1.224;2023-07-31T00:35:47;13.98;;;5.05;;
70543;SDS011;58097;48.364;-1.224;2023-07-31T00:38:13;13.32;;;5.03;;
70543;SDS011;58097;48.364;-1.224;2023-07-31T00:40:38;12.25;;;4.07;;
70543;SDS011;58097;48.364;-1.224;2023-07-31T00:43:04;11.88;;;4.88;;
70543;SDS011;58097;48.364;-1.224;2023-07-31T00:45:29;16.00;;;4.78;;
70543;SDS011;58097;48.364;-1.224;2023-07-31T00:47:56;14.13;;;4.80;;
70543;SDS011;58097;48.364;-1.224;2023-07-31T00:50:22;11.60;;;4.80;;
70543;SDS011;58097;48.364;-1.224;2023-07-31T00:52:51;23.95;;;5.13;;
70543;SDS011;58097;48.364;-1.224;2023-07-31T00:55:17;22.17;;;6.40;;
70543;SDS011;58097;48.364;-1.224;2023-07-31T00:57:42;16.13;;;5.05;;
70543;SDS011;58097;48.364;-1.224;2023-07-31T01:00:10;12.40;;;5.10;;
70543;SDS011;58097;48.364;-1.224;2023-07-31T01:02:36;14.20;;;5.13;;
70543;SDS011;58097;48.364;-1.224;2023-07-31T01:05:02;17.75;;;4.78;;
70543;SDS011;58097;48.364;-1.224;2023-07-31T01:10:30;15.33;;;4.93;;
70543;SDS011;58097;48.364;-1.224;2023-07-31T01:13:02;19.95;;;5.13;;
70543;SDS011;58097;48.364;-1.224;2023-07-31T01:15:28;15.93;;;5.32;;
70543;SDS011;58097;48.364;-1.224;2023-07-31T01:17:54;16.60;;;4.90;;
70543;SDS011;58097;48.364;-1.224;2023-07-31T01:20:23;15.98;;;4.90;;
70543;SDS011;58097;48.364;-1.224;2023-07-31T01:23:08;12.00;;;4.65;;
70543;SDS011;58097;48.364;-1.224;2023-07-31T01:31:03;14.80;;;5.28;;
70543;SDS011;58097;48.364;-1.224;2023-07-31T01:33:32;18.17;;;4.75;;
70543;SDS011;58097;48.364;-1.224;2023-07-31T01:35:58;12.13;;;5.10;;
70543;SDS011;58097;48.364;-1.224;2023-07-31T01:38:24;10.25;;;4.70;;
70543;SDS011;58097;48.364;-1.224;2023-07-31T01:40:52;8.75;;;4.75;;
70543;SDS011;58097;48.364;-1.224;2023-07-31T01:43:18;16.27;;;5.45;;
70543;SDS011;58097;48.364;-1.224;2023-07-31T01:45:44;13.85;;;5.35;;
70543;SDS011;58097;48.364;-1.224;2023-07-31T01:48:09;14.95;;;4.68;;
70543;SDS011;58097;48.364;-1.224;2023-07-31T01:50:35;11.82;;;4.40;;
70543;SDS011;58097;48.364;-1.224;2023-07-31T01:53:00;10.10;;;4.70;;
70543;SDS011;58097;48.364;-1.224;2023-07-31T01:55:25;13.90;;;5.30;;
70543;SDS011;58097;48.364;-1.224;2023-07-31T01:57:51;16.23;;;4.35;;
70543;SDS011;58097;48.364;-1.224;2023-07-31T02:00:17;15.55;;;4.85;;
70543;SDS011;58097;48.364;-1.224;2023-07-31T02:02:43;11.15;;;5.18;;
70543;SDS011;58097;48.364;-1.224;2023-07-31T02:05:08;12.38;;;4.65;;
70543;SDS011;58097;48.364;-1.224;2023-07-31T02:07:34;8.70;;;5.15;;
70543;SDS011;58097;48.364;-1.224;2023-07-31T02:09:59;11.23;;;4.68;;
70543;SDS011;58097;48.364;-1.224;2023-07-31T02:12:24;15.30;;;5.05;;
70543;SDS011;58097;48.364;-1.224;2023-07-31T02:14:50;14.88;;;4.95;;
70543;SDS011;58097;48.364;-1.224;2023-07-31T02:17:15;12.48;;;5.78;;
70543;SDS011;58097;48.364;-1.224;2023-07-31T02:19:40;13.40;;;6.05;;
70543;SDS011;58097;48.364;-1.224;2023-07-31T02:22:06;10.70;;;5.07;;
70543;SDS011;58097;48.364;-1.224;2023-07-31T02:24:31;13.32;;;4.20;;
70543;SDS011;58097;48.364;-1.224;2023-07-31T02:26:57;17.58;;;5.95;;
70543;SDS011;58097;48.364;-1.224;2023-07-31T02:29:22;17.40;;;5.80;;
70543;SDS011;58097;48.364;-1.224;2023-07-31T02:31:47;13.50;;;4.95;;
70543;SDS011;58097;48.364;-1.224;2023-07-31T02:34:13;14.75;;;5.07;;
70543;SDS011;58097;48.364;-1.224;2023-07-31T02:36:38;17.15;;;5.85;;
70543;SDS011;58097;48.364;-1.224;2023-07-31T02:39:03;18.15;;;5.03;;
70543;SDS011;58097;48.364;-1.224;2023-07-31T02:41:29;12.70;;;5.75;;
70543;SDS011;58097;48.364;-1.224;2023-07-31T02:43:54;14.23;;;5.90;;
70543;SDS011;58097;48.364;-1.224;2023-07-31T02:46:19;19.80;;;4.93;;
70543;SDS011;58097;48.364;-1.224;2023-07-31T02:48:45;14.23;;;4.97;;
70543;SDS011;58097;48.364;-1.224;2023-07-31T02:51:10;15.63;;;5.20;;
70543;SDS011;58097;48.364;-1.224;2023-07-31T02:53:36;15.90;;;4.72;;
70543;SDS011;58097;48.364;-1.224;2023-07-31T02:56:01;13.75;;;5.93;;
70543;SDS011;58097;48.364;-1.224;2023-07-31T02:58:26;14.88;;;4.45;;
70543;SDS011;58097;48.364;-1.224;2023-07-31T03:00:52;10.15;;;4.00;;
70543;SDS011;58097;48.364;-1.224;2023-07-31T03:03:17;19.02;;;5.75;;
70543;SDS011;58097;48.364;-1.224;2023-07-31T03:05:42;12.93;;;5.00;;
70543;SDS011;58097;48.364;-1.224;2023-07-31T03:08:08;15.98;;;4.93;;
70543;SDS011;58097;48.364;-1.224;2023-07-31T03:10:33;9.40;;;4.00;;
70543;SDS011;58097;48.364;-1.224;2023-07-31T03:12:58;13.57;;;4.93;;
70543;SDS011;58097;48.364;-1.224;2023-07-31T03:15:23;12.63;;;4.68;;
70543;SDS011;58097;48.364;-1.224;2023-07-31T03:17:49;12.48;;;4.80;;
70543;SDS011;58097;48.364;-1.224;2023-07-31T03:20:14;11.38;;;4.65;;
70543;SDS011;58097;48.364;-1.224;2023-07-31T03:22:40;13.85;;;4.57;;
70543;SDS011;58097;48.364;-1.224;2023-07-31T03:25:05;14.02;;;4.25;;
70543;SDS011;58097;48.364;-1.224;2023-07-31T03:27:31;14.05;;;5.57;;
70543;SDS011;58097;48.364;-1.224;2023-07-31T03:29:56;10.57;;;4.43;;
70543;SDS011;58097;48.364;-1.224;2023-07-31T03:32:22;20.17;;;5.22;;
70543;SDS011;58097;48.364;-1.224;2023-07-31T03:34:47;9.02;;;4.07;;
70543;SDS011;58097;48.364;-1.224;2023-07-31T03:37:14;15.48;;;6.03;;
70543;SDS011;58097;48.364;-1.224;2023-07-31T03:39:40;17.15;;;5.40;;
70543;SDS011;58097;48.364;-1.224;2023-07-31T03:42:05;16.42;;;5.10;;
70543;SDS011;58097;48.364;-1.224;2023-07-31T03:44:31;17.52;;;5.40;;
70543;SDS011;58097;48.364;-1.224;2023-07-31T03:46:56;16.75;;;4.72;;
70543;SDS011;58097;48.364;-1.224;2023-07-31T03:49:21;9.93;;;5.43;;
70543;SDS011;58097;48.364;-1.224;2023-07-31T03:51:47;13.50;;;4.78;;
70543;SDS011;58097;48.364;-1.224;2023-07-31T03:54:12;15.18;;;4.22;;
70543;SDS011;58097;48.364;-1.224;2023-07-31T03:56:39;14.57;;;5.80;;
70543;SDS011;58097;48.364;-1.224;2023-07-31T03:59:04;9.90;;;4.25;;
70543;SDS011;58097;48.364;-1.224;2023-07-31T04:01:30;24.13;;;5.32;;
70543;SDS011;58097;48.364;-1.224;2023-07-31T04:03:55;13.27;;;4.75;;
70543;SDS011;58097;48.364;-1.224;2023-07-31T04:06:21;7.80;;;3.92;;
70543;SDS011;58097;48.364;-1.224;2023-07-31T04:08:46;9.18;;;4.57;;
70543;SDS011;58097;48.364;-1.224;2023-07-31T04:11:11;14.25;;;5.15;;
70543;SDS011;58097;48.364;-1.224;2023-07-31T04:13:40;15.52;;;5.32;;
70543;SDS011;58097;48.364;-1.224;2023-07-31T04:16:05;12.95;;;4.72;;
70543;SDS011;58097;48.364;-1.224;2023-07-31T04:18:31;8.80;;;4.78;;
70543;SDS011;58097;48.364;-1.224;2023-07-31T04:20:57;10.35;;;4.97;;
70543;SDS011;58097;48.364;-1.224;2023-07-31T04:23:26;10.25;;;4.15;;
70543;SDS011;58097;48.364;-1.224;2023-07-31T04:25:51;11.60;;;5.28;;
70543;SDS011;58097;48.364;-1.224;2023-07-31T04:28:17;8.50;;;4.35;;
70543;SDS011;58097;48.364;-1.224;2023-07-31T04:30:42;17.67;;;5.60;;
70543;SDS011;58097;48.364;-1.224;2023-07-31T04:33:08;13.52;;;4.05;;
70543;SDS011;58097;48.364;-1.224;2023-07-31T04:35:33;16.45;;;4.85;;
70543;SDS011;58097;48.364;-1.224;2023-07-31T04:37:58;14.13;;;5.47;;
70543;SDS011;58097;48.364;-1.224;2023-07-31T04:40:24;14.05;;;5.07;;
70543;SDS011;58097;48.364;-1.224;2023-07-31T04:42:49;10.77;;;4.55;;
70543;SDS011;58097;48.364;-1.224;2023-07-31T04:45:15;11.40;;;4.53;;
70543;SDS011;58097;48.364;-1.224;2023-07-31T04:47:40;13.48;;;4.80;;
70543;SDS011;58097;48.364;-1.224;2023-07-31T04:50:06;9.18;;;4.07;;
70543;SDS011;58097;48.364;-1.224;2023-07-31T04:52:32;10.90;;;4.10;;
70543;SDS011;58097;48.364;-1.224;2023-07-31T04:54:57;16.90;;;4.70;;
70543;SDS011;58097;48.364;-1.224;2023-07-31T04:57:22;13.07;;;5.13;;
70543;SDS011;58097;48.364;-1.224;2023-07-31T04:59:48;16.27;;;4.60;;
70543;SDS011;58097;48.364;-1.224;2023-07-31T05:02:13;12.95;;;3.75;;
70543;SDS011;58097;48.364;-1.224;2023-07-31T05:04:38;11.20;;;4.35;;
70543;SDS011;58097;48.364;-1.224;2023-07-31T05:07:04;11.18;;;4.07;;
70543;SDS011;58097;48.364;-1.224;2023-07-31T05:09:29;11.93;;;5.05;;
70543;SDS011;58097;48.364;-1.224;2023-07-31T05:11:55;14.73;;;4.38;;
70543;SDS011;58097;48.364;-1.224;2023-07-31T05:14:20;17.02;;;5.07;;
70543;SDS011;58097;48.364;-1.224;2023-07-31T05:16:45;10.35;;;4.22;;
70543;SDS011;58097;48.364;-1.224;2023-07-31T05:19:11;12.43;;;4.65;;
70543;SDS011;58097;48.364;-1.224;2023-07-31T05:21:36;12.73;;;4.30;;
70543;SDS011;58097;48.364;-1.224;2023-07-31T05:24:02;12.25;;;5.28;;
70543;SDS011;58097;48.364;-1.224;2023-07-31T05:26:27;17.27;;;4.43;;
70543;SDS011;58097;48.364;-1.224;2023-07-31T05:28:53;10.07;;;5.45;;
70543;SDS011;58097;48.364;-1.224;2023-07-31T05:31:18;11.68;;;4.25;;
70543;SDS011;58097;48.364;-1.224;2023-07-31T05:33:43;11.45;;;4.90;;
70543;SDS011;58097;48.364;-1.224;2023-07-31T05:36:09;12.48;;;4.65;;
70543;SDS011;58097;48.364;-1.224;2023-07-31T05:38:34;13.27;;;4.85;;
70543;SDS011;58097;48.364;-1.224;2023-07-31T05:41:00;13.95;;;4.43;;
70543;SDS011;58097;48.364;-1.224;2023-07-31T05:43:25;17.55;;;4.93;;
70543;SDS011;58097;48.364;-1.224;2023-07-31T05:45:50;15.80;;;5.05;;
70543;SDS011;58097;48.364;-1.224;2023-07-31T05:48:16;19.23;;;5.15;;
70543;SDS011;58097;48.364;-1.224;2023-07-31T05:50:42;13.85;;;4.68;;
70543;SDS011;58097;48.364;-1.224;2023-07-31T05:53:08;9.85;;;4.25;;
70543;SDS011;58097;48.364;-1.224;2023-07-31T05:55:35;8.70;;;4.18;;
70543;SDS011;58097;48.364;-1.224;2023-07-31T05:58:00;7.28;;;4.60;;
70543;SDS011;58097;48.364;-1.224;2023-07-31T06:00:26;12.73;;;4.90;;
70543;SDS011;58097;48.364;-1.224;2023-07-31T06:02:52;13.25;;;4.30;;
70543;SDS011;58097;48.364;-1.224;2023-07-31T06:05:18;10.38;;;4.68;;
70543;SDS011;58097;48.364;-1.224;2023-07-31T06:07:43;12.52;;;4.35;;
70543;SDS011;58097;48.364;-1.224;2023-07-31T06:10:09;13.60;;;4.47;;
70543;SDS011;58097;48.364;-1.224;2023-07-31T06:12:34;14.27;;;4.88;;
70543;SDS011;58097;48.364;-1.224;2023-07-31T06:15:01;12.27;;;4.85;;
70543;SDS011;58097;48.364;-1.224;2023-07-31T06:17:27;9.30;;;4.45;;
70543;SDS011;58097;48.364;-1.224;2023-07-31T06:19:53;15.63;;;5.28;;
70543;SDS011;58097;48.364;-1.224;2023-07-31T06:22:19;8.18;;;4.07;;
70543;SDS011;58097;48.364;-1.224;2023-07-31T06:24:45;10.45;;;4.60;;
70543;SDS011;58097;48.364;-1.224;2023-07-31T06:27:11;10.55;;;4.30;;
70543;SDS011;58097;48.364;-1.224;2023-07-31T06:29:36;6.88;;;4.05;;
70543;SDS011;58097;48.364;-1.224;2023-07-31T06:32:02;10.65;;;4.05;;
70543;SDS011;58097;48.364;-1.224;2023-07-31T06:34:28;12.25;;;4.30;;
70543;SDS011;58097;48.364;-1.224;2023-07-31T06:36:53;20.95;;;5.72;;
70543;SDS011;58097;48.364;-1.224;2023-07-31T06:39:20;10.68;;;4.25;;
70543;SDS011;58097;48.364;-1.224;2023-07-31T06:41:46;9.55;;;4.57;;
70543;SDS011;58097;48.364;-1.224;2023-07-31T06:44:11;11.93;;;4.10;;
70543;SDS011;58097;48.364;-1.224;2023-07-31T06:46:37;13.27;;;5.18;;
70543;SDS011;58097;48.364;-1.224;2023-07-31T06:49:03;17.40;;;5.03;;
70543;SDS011;58097;48.364;-1.224;2023-07-31T06:51:28;12.90;;;4.13;;
70543;SDS011;58097;48.364;-1.224;2023-07-31T06:53:53;9.40;;;3.92;;
70543;SDS011;58097;48.364;-1.224;2023-07-31T06:56:19;11.18;;;4.28;;
70543;SDS011;58097;48.364;-1.224;2023-07-31T06:58:45;14.02;;;4.78;;
70543;SDS011;58097;48.364;-1.224;2023-07-31T07:01:11;11.55;;;4.43;;
70543;SDS011;58097;48.364;-1.224;2023-07-31T07:03:36;12.82;;;4.50;;
70543;SDS011;58097;48.364;-1.224;2023-07-31T07:06:01;12.48;;;4.40;;
70543;SDS011;58097;48.364;-1.224;2023-07-31T07:08:27;13.45;;;4.00;;
70543;SDS011;58097;48.364;-1.224;2023-07-31T07:10:52;8.48;;;4.13;;
70543;SDS011;58097;48.364;-1.224;2023-07-31T07:13:17;8.60;;;3.95;;
70543;SDS011;58097;48.364;-1.224;2023-07-31T07:15:49;9.18;;;3.58;;
70543;SDS011;58097;48.364;-1.224;2023-07-31T07:18:15;8.52;;;4.05;;
70543;SDS011;58097;48.364;-1.224;2023-07-31T07:20:41;11.02;;;3.40;;
70543;SDS011;58097;48.364;-1.224;2023-07-31T07:23:11;10.27;;;4.17;;
70543;SDS011;58097;48.364;-1.224;2023-07-31T07:25:39;7.18;;;3.72;;
70543;SDS011;58097;48.364;-1.224;2023-07-31T07:28:05;10.10;;;4.20;;
70543;SDS011;58097;48.364;-1.224;2023-07-31T07:30:30;13.02;;;4.70;;
70543;SDS011;58097;48.364;-1.224;2023-07-31T07:32:55;11.77;;;4.05;;
70543;SDS011;58097;48.364;-1.224;2023-07-31T07:35:21;9.23;;;3.70;;
70543;SDS011;58097;48.364;-1.224;2023-07-31T07:37:48;11.60;;;3.22;;
70543;SDS011;58097;48.364;-1.224;2023-07-31T07:40:15;10.55;;;3.10;;
70543;SDS011;58097;48.364;-1.224;2023-07-31T07:42:40;15.70;;;3.60;;
70543;SDS011;58097;48.364;-1.224;2023-07-31T07:45:05;13.57;;;3.63;;
70543;SDS011;58097;48.364;-1.224;2023-07-31T07:47:31;11.55;;;3.88;;
70543;SDS011;58097;48.364;-1.224;2023-07-31T07:49:57;9.00;;;3.40;;
70543;SDS011;58097;48.364;-1.224;2023-07-31T07:52:22;12.70;;;3.28;;
70543;SDS011;58097;48.364;-1.224;2023-07-31T07:54:47;10.65;;;3.03;;
70543;SDS011;58097;48.364;-1.224;2023-07-31T07:57:13;10.75;;;3.55;;
70543;SDS011;58097;48.364;-1.224;2023-07-31T07:59:38;10.15;;;3.38;;
70543;SDS011;58097;48.364;-1.224;2023-07-31T08:02:04;5.65;;;2.72;;
70543;SDS011;58097;48.364;-1.224;2023-07-31T08:04:29;12.52;;;4.20;;
70543;SDS011;58097;48.364;-1.224;2023-07-31T08:06:55;11.55;;;4.07;;
70543;SDS011;58097;48.364;-1.224;2023-07-31T08:09:20;6.38;;;2.80;;
70543;SDS011;58097;48.364;-1.224;2023-07-31T08:11:46;8.15;;;3.08;;
70543;SDS011;58097;48.364;-1.224;2023-07-31T08:14:11;11.63;;;3.38;;
70543;SDS011;58097;48.364;-1.224;2023-07-31T08:16:36;7.85;;;3.42;;
70543;SDS011;58097;48.364;-1.224;2023-07-31T08:19:02;4.88;;;2.92;;
70543;SDS011;58097;48.364;-1.224;2023-07-31T08:21:27;10.35;;;2.88;;
70543;SDS011;58097;48.364;-1.224;2023-07-31T08:23:52;6.43;;;2.88;;
70543;SDS011;58097;48.364;-1.224;2023-07-31T08:26:18;7.88;;;3.22;;
70543;SDS011;58097;48.364;-1.224;2023-07-31T08:28:44;7.55;;;3.17;;
70543;SDS011;58097;48.364;-1.224;2023-07-31T08:31:10;10.82;;;3.20;;
70543;SDS011;58097;48.364;-1.224;2023-07-31T08:33:36;8.77;;;3.20;;
70543;SDS011;58097;48.364;-1.224;2023-07-31T08:36:02;6.88;;;2.72;;
70543;SDS011;58097;48.364;-1.224;2023-07-31T08:38:27;9.27;;;2.63;;
70543;SDS011;58097;48.364;-1.224;2023-07-31T08:40:54;10.35;;;2.92;;
70543;SDS011;58097;48.364;-1.224;2023-07-31T08:43:21;6.00;;;3.08;;
70543;SDS011;58097;48.364;-1.224;2023-07-31T08:45:50;11.48;;;3.60;;
70543;SDS011;58097;48.364;-1.224;2023-07-31T08:48:15;8.65;;;3.35;;
70543;SDS011;58097;48.364;-1.224;2023-07-31T08:50:42;8.60;;;2.95;;
70543;SDS011;58097;48.364;-1.224;2023-07-31T08:53:08;4.38;;;2.72;;
70543;SDS011;58097;48.364;-1.224;2023-07-31T08:55:34;4.70;;;2.67;;
70543;SDS011;58097;48.364;-1.224;2023-07-31T08:58:00;6.68;;;2.70;;
70543;SDS011;58097;48.364;-1.224;2023-07-31T09:00:29;7.45;;;3.13;;
70543;SDS011;58097;48.364;-1.224;2023-07-31T09:05:33;10.98;;;2.92;;
70543;SDS011;58097;48.364;-1.224;2023-07-31T09:08:00;9.02;;;2.63;;
70543;SDS011;58097;48.364;-1.224;2023-07-31T09:10:29;6.70;;;2.58;;
70543;SDS011;58097;48.364;-1.224;2023-07-31T09:12:55;5.00;;;2.35;;
70543;SDS011;58097;48.364;-1.224;2023-07-31T09:15:21;6.57;;;2.63;;
70543;SDS011;58097;48.364;-1.224;2023-07-31T09:17:48;8.35;;;2.83;;
70543;SDS011;58097;48.364;-1.224;2023-07-31T09:20:24;10.05;;;3.13;;
70543;SDS011;58097;48.364;-1.224;2023-07-31T09:22:50;13.95;;;3.28;;
70543;SDS011;58097;48.364;-1.224;2023-07-31T09:25:16;7.15;;;2.33;;
70543;SDS011;58097;48.364;-1.224;2023-07-31T09:27:58;5.85;;;2.40;;
70543;SDS011;58097;48.364;-1.224;2023-07-31T09:30:24;4.43;;;2.40;;
70543;SDS011;58097;48.364;-1.224;2023-07-31T09:32:51;5.38;;;2.63;;
70543;SDS011;58097;48.364;-1.224;2023-07-31T09:35:31;3.70;;;2.50;;
70543;SDS011;58097;48.364;-1.224;2023-07-31T09:37:59;4.32;;;2.42;;
70543;SDS011;58097;48.364;-1.224;2023-07-31T09:40:37;5.53;;;2.88;;
70543;SDS011;58097;48.364;-1.224;2023-07-31T09:43:05;7.72;;;2.67;;
70543;SDS011;58097;48.364;-1.224;2023-07-31T09:45:36;8.07;;;3.15;;
70543;SDS011;58097;48.364;-1.224;2023-07-31T09:48:14;10.70;;;2.50;;
70543;SDS011;58097;48.364;-1.224;2023-07-31T09:50:44;4.93;;;2.33;;
70543;SDS011;58097;48.364;-1.224;2023-07-31T09:53:10;8.55;;;2.72;;
70543;SDS011;58097;48.364;-1.224;2023-07-31T09:55:36;6.05;;;2.45;;
70543;SDS011;58097;48.364;-1.224;2023-07-31T09:58:07;6.03;;;2.00;;
70543;SDS011;58097;48.364;-1.224;2023-07-31T10:00:34;8.95;;;2.78;;
70543;SDS011;58097;48.364;-1.224;2023-07-31T10:03:01;6.45;;;3.28;;
70543;SDS011;58097;48.364;-1.224;2023-07-31T10:05:33;8.30;;;2.55;;
70543;SDS011;58097;48.364;-1.224;2023-07-31T10:08:00;5.68;;;2.80;;
70543;SDS011;58097;48.364;-1.224;2023-07-31T10:10:25;8.57;;;2.95;;
70543;SDS011;58097;48.364;-1.224;2023-07-31T10:12:53;5.45;;;2.70;;
70543;SDS011;58097;48.364;-1.224;2023-07-31T10:15:19;7.70;;;2.72;;
70543;SDS011;58097;48.364;-1.224;2023-07-31T10:17:48;5.50;;;2.88;;
70543;SDS011;58097;48.364;-1.224;2023-07-31T10:20:15;3.92;;;2.58;;
70543;SDS011;58097;48.364;-1.224;2023-07-31T10:22:41;7.35;;;2.90;;
70543;SDS011;58097;48.364;-1.224;2023-07-31T10:25:08;6.63;;;3.05;;
70543;SDS011;58097;48.364;-1.224;2023-07-31T10:27:35;4.55;;;2.58;;
70543;SDS011;58097;48.364;-1.224;2023-07-31T10:30:03;6.93;;;3.17;;
70543;SDS011;58097;48.364;-1.224;2023-07-31T10:32:32;7.55;;;2.80;;
70543;SDS011;58097;48.364;-1.224;2023-07-31T10:34:58;8.02;;;2.97;;
70543;SDS011;58097;48.364;-1.224;2023-07-31T10:37:28;8.15;;;4.20;;
70543;SDS011;58097;48.364;-1.224;2023-07-31T10:40:04;7.03;;;3.42;;
70543;SDS011;58097;48.364;-1.224;2023-07-31T10:42:52;11.00;;;3.45;;
70543;SDS011;58097;48.364;-1.224;2023-07-31T10:45:32;8.43;;;4.10;;
70543;SDS011;58097;48.364;-1.224;2023-07-31T10:48:01;12.10;;;4.43;;
70543;SDS011;58097;48.364;-1.224;2023-07-31T10:50:47;8.38;;;3.80;;
70543;SDS011;58097;48.364;-1.224;2023-07-31T10:53:30;6.13;;;3.42;;
70543;SDS011;58097;48.364;-1.224;2023-07-31T10:56:00;7.28;;;4.00;;
70543;SDS011;58097;48.364;-1.224;2023-07-31T10:58:29;7.57;;;4.70;;
70543;SDS011;58097;48.364;-1.224;2023-07-31T11:00:57;6.15;;;3.10;;
70543;SDS011;58097;48.364;-1.224;2023-07-31T11:03:25;8.55;;;3.75;;
70543;SDS011;58097;48.364;-1.224;2023-07-31T11:08:23;12.77;;;4.70;;
70543;SDS011;58097;48.364;-1.224;2023-07-31T11:11:11;8.00;;;4.00;;
70543;SDS011;58097;48.364;-1.224;2023-07-31T11:13:45;9.73;;;3.85;;
70543;SDS011;58097;48.364;-1.224;2023-07-31T11:16:11;7.00;;;4.40;;
70543;SDS011;58097;48.364;-1.224;2023-07-31T11:18:38;6.75;;;3.25;;
70543;SDS011;58097;48.364;-1.224;2023-07-31T11:21:05;7.97;;;3.67;;
70543;SDS011;58097;48.364;-1.224;2023-07-31T11:23:31;6.75;;;3.15;;
70543;SDS011;58097;48.364;-1.224;2023-07-31T11:26:00;12.45;;;3.92;;
70543;SDS011;58097;48.364;-1.224;2023-07-31T11:28:26;8.38;;;3.53;;
70543;SDS011;58097;48.364;-1.224;2023-07-31T11:30:57;5.75;;;3.72;;
70543;SDS011;58097;48.364;-1.224;2023-07-31T11:33:22;10.88;;;3.85;;
70543;SDS011;58097;48.364;-1.224;2023-07-31T11:35:48;11.90;;;3.78;;
70543;SDS011;58097;48.364;-1.224;2023-07-31T11:40:55;8.43;;;3.85;;
70543;SDS011;58097;48.364;-1.224;2023-07-31T11:43:22;10.82;;;4.03;;
70543;SDS011;58097;48.364;-1.224;2023-07-31T11:45:49;16.67;;;4.22;;
70543;SDS011;58097;48.364;-1.224;2023-07-31T11:48:25;9.95;;;4.55;;
70543;SDS011;58097;48.364;-1.224;2023-07-31T11:50:53;13.52;;;4.85;;
70543;SDS011;58097;48.364;-1.224;2023-07-31T11:53:45;8.38;;;3.20;;
70543;SDS011;58097;48.364;-1.224;2023-07-31T11:56:28;8.70;;;3.42;;
70543;SDS011;58097;48.364;-1.224;2023-07-31T11:58:58;11.52;;;3.72;;
70543;SDS011;58097;48.364;-1.224;2023-07-31T12:01:24;10.90;;;3.70;;
70543;SDS011;58097;48.364;-1.224;2023-07-31T12:03:52;6.90;;;3.20;;
70543;SDS011;58097;48.364;-1.224;2023-07-31T12:06:18;6.90;;;3.97;;
70543;SDS011;58097;48.364;-1.224;2023-07-31T12:08:46;8.25;;;4.28;;
70543;SDS011;58097;48.364;-1.224;2023-07-31T12:11:11;10.43;;;3.53;;
70543;SDS011;58097;48.364;-1.224;2023-07-31T12:13:38;9.75;;;3.70;;
70543;SDS011;58097;48.364;-1.224;2023-07-31T12:16:04;6.03;;;3.55;;
70543;SDS011;58097;48.364;-1.224;2023-07-31T12:18:33;9.32;;;3.88;;
70543;SDS011;58097;48.364;-1.224;2023-07-31T12:21:01;8.90;;;3.22;;
70543;SDS011;58097;48.364;-1.224;2023-07-31T12:23:29;6.70;;;3.30;;
70543;SDS011;58097;48.364;-1.224;2023-07-31T12:26:03;6.25;;;3.00;;
70543;SDS011;58097;48.364;-1.224;2023-07-31T12:28:29;5.05;;;3.20;;
70543;SDS011;58097;48.364;-1.224;2023-07-31T12:30:58;9.35;;;3.60;;
70543;SDS011;58097;48.364;-1.224;2023-07-31T12:33:29;8.85;;;3.53;;
70543;SDS011;58097;48.364;-1.224;2023-07-31T12:36:00;6.72;;;3.55;;
70543;SDS011;58097;48.364;-1.224;2023-07-31T12:38:27;6.45;;;3.17;;
70543;SDS011;58097;48.364;-1.224;2023-07-31T12:40:52;9.82;;;3.97;;
70543;SDS011;58097;48.364;-1.224;2023-07-31T12:43:17;6.68;;;3.95;;
70543;SDS011;58097;48.364;-1.224;2023-07-31T12:45:43;7.20;;;2.85;;
70543;SDS011;58097;48.364;-1.224;2023-07-31T12:48:08;5.03;;;2.50;;
70543;SDS011;58097;48.364;-1.224;2023-07-31T12:50:34;11.77;;;3.55;;
70543;SDS011;58097;48.364;-1.224;2023-07-31T12:53:01;7.25;;;3.85;;
70543;SDS011;58097;48.364;-1.224;2023-07-31T12:55:28;7.55;;;3.50;;
70543;SDS011;58097;48.364;-1.224;2023-07-31T12:57:54;6.38;;;2.83;;
70543;SDS011;58097;48.364;-1.224;2023-07-31T13:00:19;6.25;;;2.70;;
70543;SDS011;58097;48.364;-1.224;2023-07-31T13:02:45;5.22;;;2.80;;
70543;SDS011;58097;48.364;-1.224;2023-07-31T13:05:11;3.22;;;2.22;;
70543;SDS011;58097;48.364;-1.224;2023-07-31T13:07:38;4.28;;;2.50;;
70543;SDS011;58097;48.364;-1.224;2023-07-31T13:10:03;6.07;;;2.42;;
70543;SDS011;58097;48.364;-1.224;2023-07-31T13:12:29;3.95;;;2.38;;
70543;SDS011;58097;48.364;-1.224;2023-07-31T13:14:54;5.85;;;2.22;;
70543;SDS011;58097;48.364;-1.224;2023-07-31T13:17:20;3.80;;;2.35;;
70543;SDS011;58097;48.364;-1.224;2023-07-31T13:19:45;3.53;;;1.88;;
70543;SDS011;58097;48.364;-1.224;2023-07-31T13:22:10;3.08;;;2.10;;
70543;SDS011;58097;48.364;-1.224;2023-07-31T13:24:36;4.57;;;2.08;;
70543;SDS011;58097;48.364;-1.224;2023-07-31T13:27:01;5.28;;;2.10;;
70543;SDS011;58097;48.364;-1.224;2023-07-31T13:29:27;4.47;;;1.77;;
70543;SDS011;58097;48.364;-1.224;2023-07-31T13:31:52;4.15;;;1.80;;
70543;SDS011;58097;48.364;-1.224;2023-07-31T13:34:18;2.60;;;1.17;;
70543;SDS011;58097;48.364;-1.224;2023-07-31T13:36:43;2.15;;;1.58;;
70543;SDS011;58097;48.364;-1.224;2023-07-31T13:39:09;7.93;;;2.83;;
70543;SDS011;58097;48.364;-1.224;2023-07-31T13:41:34;1.85;;;1.23;;
70543;SDS011;58097;48.364;-1.224;2023-07-31T13:43:59;6.03;;;1.40;;
70543;SDS011;58097;48.364;-1.224;2023-07-31T13:46:25;3.30;;;1.73;;
70543;SDS011;58097;48.364;-1.224;2023-07-31T13:48:50;2.33;;;1.65;;
70543;SDS011;58097;48.364;-1.224;2023-07-31T13:51:16;5.25;;;1.83;;
70543;SDS011;58097;48.364;-1.224;2023-07-31T13:53:41;2.10;;;1.30;;
70543;SDS011;58097;48.364;-1.224;2023-07-31T13:56:07;5.18;;;1.58;;
70543;SDS011;58097;48.364;-1.224;2023-07-31T13:58:33;3.67;;;1.90;;
70543;SDS011;58097;48.364;-1.224;2023-07-31T14:00:58;3.38;;;1.60;;
70543;SDS011;58097;48.364;-1.224;2023-07-31T14:03:24;7.28;;;1.70;;
70543;SDS011;58097;48.364;-1.224;2023-07-31T14:05:49;2.95;;;1.38;;
70543;SDS011;58097;48.364;-1.224;2023-07-31T14:08:15;6.50;;;1.92;;
70543;SDS011;58097;48.364;-1.224;2023-07-31T14:10:40;3.00;;;1.60;;
70543;SDS011;58097;48.364;-1.224;2023-07-31T14:13:05;6.55;;;1.80;;
70543;SDS011;58097;48.364;-1.224;2023-07-31T14:15:31;3.15;;;1.73;;
70543;SDS011;58097;48.364;-1.224;2023-07-31T14:17:57;3.95;;;1.73;;
70543;SDS011;58097;48.364;-1.224;2023-07-31T14:20:22;5.70;;;1.80;;
70543;SDS011;58097;48.364;-1.224;2023-07-31T14:22:48;6.20;;;1.88;;
70543;SDS011;58097;48.364;-1.224;2023-07-31T14:25:13;3.20;;;1.55;;
70543;SDS011;58097;48.364;-1.224;2023-07-31T14:27:38;2.17;;;1.30;;
70543;SDS011;58097;48.364;-1.224;2023-07-31T14:30:04;1.73;;;1.35;;
70543;SDS011;58097;48.364;-1.224;2023-07-31T14:32:30;4.95;;;1.50;;
70543;SDS011;58097;48.364;-1.224;2023-07-31T14:34:55;2.55;;;1.27;;
70543;SDS011;58097;48.364;-1.224;2023-07-31T14:37:21;2.55;;;1.42;;
70543;SDS011;58097;48.364;-1.224;2023-07-31T14:39:46;1.40;;;0.98;;
70543;SDS011;58097;48.364;-1.224;2023-07-31T14:42:11;1.67;;;0.93;;